Time,TemperatureF,DewpointF,PressureIn,WindDirection,WindDirectionDegrees,WindSpeedMPH,WindSpeedGustMPH,Humidity,HourlyPrecipIn,Conditions,Clouds,dailyrainin,SoftwareType,DateUTC
2014-09-23 00:03:00,60.6,49.2,29.98,NNE,18,0.0,2.0,66,0.00,,,0.00,Wunderground v.1.15,2014-09-23 07:03:00,
2014-09-23 00:08:00,59.8,49.6,29.98,SE,125,0.0,2.0,69,0.00,,,0.00,Wunderground v.1.15,2014-09-23 07:08:00,
2014-09-23 00:14:00,58.9,50.3,29.98,SW,219,1.0,2.0,73,0.00,,,0.00,Wunderground v.1.15,2014-09-23 07:14:00,
2014-09-23 00:20:00,58.5,49.5,29.98,SW,219,1.0,1.0,72,0.00,,,0.00,Wunderground v.1.15,2014-09-23 07:20:00,
2014-09-23 00:26:00,58.9,49.5,29.98,WNW,283,0.0,2.0,71,0.00,,,0.00,Wunderground v.1.15,2014-09-23 07:26:00,
2014-09-23 00:32:00,58.9,49.9,29.98,WNW,291,0.0,2.0,72,0.00,,,0.00,Wunderground v.1.15,2014-09-23 07:32:00,
2014-09-23 00:38:00,58.3,50.0,29.98,WNW,293,0.0,2.0,74,0.00,,,0.00,Wunderground v.1.15,2014-09-23 07:38:00,
2014-09-23 00:44:00,58.7,49.3,29.98,WNW,292,0.0,2.0,71,0.00,,,0.00,Wunderground v.1.15,2014-09-23 07:44:00,
2014-09-23 00:49:00,58.9,49.9,29.98,WNW,301,0.0,2.0,72,0.00,,,0.00,Wunderground v.1.15,2014-09-23 07:49:00,
2014-09-23 00:55:00,58.4,50.1,29.98,WNW,300,0.0,2.0,74,0.00,,,0.00,Wunderground v.1.15,2014-09-23 07:55:00,
2014-09-23 01:01:00,58.1,49.9,29.97,WNW,300,0.0,2.0,74,0.00,,,0.00,Wunderground v.1.15,2014-09-23 08:01:00,
2014-09-23 01:07:00,58.2,50.0,29.97,WNW,300,0.0,2.0,74,0.00,,,0.00,Wunderground v.1.15,2014-09-23 08:07:00,
2014-09-23 01:12:00,58.1,49.9,29.97,WNW,301,0.0,2.0,74,0.00,,,0.00,Wunderground v.1.15,2014-09-23 08:12:00,
2014-09-23 01:18:00,58.0,50.1,29.97,NNW,348,0.0,2.0,75,0.00,,,0.00,Wunderground v.1.15,2014-09-23 08:18:00,
2014-09-23 01:24:00,57.8,49.9,29.97,NNW,348,1.0,2.0,75,0.00,,,0.00,Wunderground v.1.15,2014-09-23 08:24:00,
2014-09-23 01:30:00,57.1,49.6,29.97,NNW,338,1.0,1.0,76,0.00,,,0.00,Wunderground v.1.15,2014-09-23 08:30:00,
2014-09-23 01:36:00,56.6,49.8,29.97,NNW,338,0.0,2.0,78,0.00,,,0.00,Wunderground v.1.15,2014-09-23 08:36:00,
2014-09-23 01:42:00,56.6,49.1,29.97,NW,312,0.0,3.0,76,0.00,,,0.00,Wunderground v.1.15,2014-09-23 08:42:00,
2014-09-23 01:48:00,56.2,49.1,29.97,WNW,291,3.0,4.0,77,0.00,,,0.00,Wunderground v.1.15,2014-09-23 08:48:00,
2014-09-23 01:53:00,55.7,48.9,29.97,West,271,3.0,4.0,78,0.00,,,0.00,Wunderground v.1.15,2014-09-23 08:53:00,
2014-09-23 01:59:00,56.0,48.9,29.98,West,264,2.0,4.0,77,0.00,,,0.00,Wunderground v.1.15,2014-09-23 08:59:00,
2014-09-23 02:05:00,55.8,49.4,29.98,SE,124,2.0,3.0,79,0.00,,,0.00,Wunderground v.1.15,2014-09-23 09:05:00,
2014-09-23 02:11:00,55.4,49.3,29.97,East,96,2.0,4.0,80,0.00,,,0.00,Wunderground v.1.15,2014-09-23 09:11:00,
2014-09-23 02:16:00,54.8,49.1,29.97,ENE,75,2.0,4.0,81,0.00,,,0.00,Wunderground v.1.15,2014-09-23 09:16:00,
2014-09-23 02:22:00,55.0,49.3,29.97,East,82,2.0,2.0,81,0.00,,,0.00,Wunderground v.1.15,2014-09-23 09:22:00,
2014-09-23 02:23:00,55.1,49.4,29.97,East,95,2.0,2.0,81,0.00,,,0.00,Wunderground v.1.15,2014-09-23 09:23:00,
2014-09-23 02:29:00,55.5,49.4,29.97,ENE,75,1.0,2.0,80,0.00,,,0.00,Wunderground v.1.15,2014-09-23 09:29:00,
2014-09-23 02:34:00,55.5,49.4,29.98,NE,39,1.0,2.0,80,0.00,,,0.00,Wunderground v.1.15,2014-09-23 09:34:00,
2014-09-23 02:40:00,55.4,49.3,29.97,SSE,159,1.0,2.0,80,0.00,,,0.00,Wunderground v.1.15,2014-09-23 09:40:00,
2014-09-23 02:46:00,54.9,48.8,29.97,SSW,205,1.0,2.0,80,0.00,,,0.00,Wunderground v.1.15,2014-09-23 09:46:00,
2014-09-23 02:52:00,54.0,48.6,29.97,SW,218,0.0,2.0,82,0.00,,,0.00,Wunderground v.1.15,2014-09-23 09:52:00,
2014-09-23 02:57:00,53.7,49.0,29.97,SSE,149,0.0,2.0,84,0.00,,,0.00,Wunderground v.1.15,2014-09-23 09:57:00,
2014-09-23 03:03:00,53.7,48.7,29.97,SSE,149,0.0,2.0,83,0.00,,,0.00,Wunderground v.1.15,2014-09-23 10:03:00,
2014-09-23 03:09:00,53.0,48.0,29.97,West,281,0.0,2.0,83,0.00,,,0.00,Wunderground v.1.15,2014-09-23 10:09:00,
2014-09-23 03:15:00,51.9,47.5,29.97,West,281,1.0,2.0,85,0.00,,,0.00,Wunderground v.1.15,2014-09-23 10:15:00,
2014-09-23 03:20:00,51.4,47.4,29.97,West,281,1.0,1.0,86,0.00,,,0.00,Wunderground v.1.15,2014-09-23 10:20:00,
2014-09-23 03:26:00,51.6,47.5,29.97,West,281,0.0,2.0,86,0.00,,,0.00,Wunderground v.1.15,2014-09-23 10:26:00,
2014-09-23 03:32:00,51.8,48.1,29.97,WSW,250,0.0,2.0,87,0.00,,,0.00,Wunderground v.1.15,2014-09-23 10:32:00,
2014-09-23 03:38:00,52.0,47.9,29.96,SW,224,1.0,2.0,86,0.00,,,0.00,Wunderground v.1.15,2014-09-23 10:38:00,
2014-09-23 03:44:00,52.4,48.3,29.97,SSE,156,1.0,2.0,86,0.00,,,0.00,Wunderground v.1.15,2014-09-23 10:44:00,
2014-09-23 03:50:00,52.8,48.4,29.97,ESE,103,0.0,2.0,85,0.00,,,0.00,Wunderground v.1.15,2014-09-23 10:50:00,
2014-09-23 03:51:00,52.9,48.5,29.97,ESE,103,0.0,2.0,85,0.00,,,0.00,Wunderground v.1.15,2014-09-23 10:51:00,
2014-09-23 03:57:00,53.5,48.8,29.97,ESE,103,0.0,2.0,84,0.00,,,0.00,Wunderground v.1.15,2014-09-23 10:57:00,
2014-09-23 04:02:00,53.8,48.4,29.97,ESE,103,0.0,2.0,82,0.00,,,0.00,Wunderground v.1.15,2014-09-23 11:02:00,
2014-09-23 04:08:00,53.3,47.9,29.97,ESE,103,0.0,2.0,82,0.00,,,0.00,Wunderground v.1.15,2014-09-23 11:08:00,
2014-09-23 04:14:00,52.3,47.9,29.97,SSW,198,1.0,2.0,85,0.00,,,0.00,Wunderground v.1.15,2014-09-23 11:14:00,
2014-09-23 04:20:00,50.9,46.6,29.97,SE,130,1.0,2.0,85,0.00,,,0.00,Wunderground v.1.15,2014-09-23 11:20:00,
2014-09-23 04:25:00,50.1,46.7,29.97,SE,135,1.0,2.0,88,0.00,,,0.00,Wunderground v.1.15,2014-09-23 11:25:00,
2014-09-23 04:31:00,50.0,46.9,29.97,SE,135,1.0,2.0,89,0.00,,,0.00,Wunderground v.1.15,2014-09-23 11:31:00,
2014-09-23 04:37:00,50.3,46.9,29.97,SE,134,0.0,2.0,88,0.00,,,0.00,Wunderground v.1.15,2014-09-23 11:37:00,
2014-09-23 04:42:00,49.9,46.5,29.97,WSW,243,0.0,2.0,88,0.00,,,0.00,Wunderground v.1.15,2014-09-23 11:42:00,
2014-09-23 04:48:00,49.6,46.8,29.97,West,280,0.0,2.0,90,0.00,,,0.00,Wunderground v.1.15,2014-09-23 11:48:00,
2014-09-23 04:54:00,49.2,46.4,29.97,West,280,0.0,2.0,90,0.00,,,0.00,Wunderground v.1.15,2014-09-23 11:54:00,
2014-09-23 05:00:00,49.2,46.1,29.97,West,280,0.0,2.0,89,0.00,,,0.00,Wunderground v.1.15,2014-09-23 12:00:00,
2014-09-23 05:05:00,49.0,45.9,29.97,West,280,0.0,2.0,89,0.00,,,0.00,Wunderground v.1.15,2014-09-23 12:05:00,
2014-09-23 05:11:00,48.8,46.0,29.97,West,273,0.0,2.0,90,0.00,,,0.00,Wunderground v.1.15,2014-09-23 12:11:00,
2014-09-23 05:15:00,48.5,46.0,29.97,West,274,0.0,2.0,91,0.00,,,0.00,Wunderground v.1.15,2014-09-23 12:15:00,
2014-09-23 05:21:00,48.6,46.1,29.97,SE,139,0.0,2.0,91,0.00,,,0.00,Wunderground v.1.15,2014-09-23 12:21:00,
2014-09-23 05:26:00,48.6,46.1,29.97,SE,129,0.0,2.0,91,0.00,,,0.00,Wunderground v.1.15,2014-09-23 12:26:00,
2014-09-23 05:32:00,48.6,46.1,29.97,WSW,250,0.0,2.0,91,0.00,,,0.00,Wunderground v.1.15,2014-09-23 12:32:00,
2014-09-23 05:38:00,48.4,45.6,29.96,NNW,340,1.0,2.0,90,0.00,,,0.00,Wunderground v.1.15,2014-09-23 12:38:00,
2014-09-23 05:44:00,49.0,46.5,29.97,NNW,340,0.0,2.0,91,0.00,,,0.00,Wunderground v.1.15,2014-09-23 12:44:00,
2014-09-23 05:49:00,48.9,45.8,29.97,NW,304,0.0,2.0,89,0.00,,,0.00,Wunderground v.1.15,2014-09-23 12:49:00,
2014-09-23 05:55:00,48.1,45.0,29.97,NW,304,0.0,2.0,89,0.00,,,0.00,Wunderground v.1.15,2014-09-23 12:55:00,
2014-09-23 06:01:00,48.0,45.5,29.97,NW,304,0.0,2.0,91,0.00,,,0.00,Wunderground v.1.15,2014-09-23 13:01:00,
2014-09-23 06:07:00,48.2,45.4,29.98,ESE,110,1.0,3.0,90,0.00,,,0.00,Wunderground v.1.15,2014-09-23 13:07:00,
2014-09-23 06:13:00,48.1,45.6,29.98,ESE,110,0.0,2.0,91,0.00,,,0.00,Wunderground v.1.15,2014-09-23 13:13:00,
2014-09-23 06:19:00,47.6,44.8,29.98,WNW,285,1.0,3.0,90,0.00,,,0.00,Wunderground v.1.15,2014-09-23 13:19:00,
2014-09-23 06:25:00,47.1,44.6,29.98,WNW,285,1.0,2.0,91,0.00,,,0.00,Wunderground v.1.15,2014-09-23 13:25:00,
2014-09-23 06:30:00,46.9,44.4,29.98,WNW,285,0.0,2.0,91,0.00,,,0.00,Wunderground v.1.15,2014-09-23 13:30:00,
2014-09-23 06:36:00,46.7,44.2,29.98,South,172,0.0,2.0,91,0.00,,,0.00,Wunderground v.1.15,2014-09-23 13:36:00,
2014-09-23 06:42:00,47.0,45.1,29.98,WSW,241,0.0,2.0,93,0.00,,,0.00,Wunderground v.1.15,2014-09-23 13:42:00,
2014-09-23 06:48:00,46.8,44.6,29.98,SE,132,0.0,2.0,92,0.00,,,0.00,Wunderground v.1.15,2014-09-23 13:48:00,
2014-09-23 06:53:00,46.8,44.6,29.99,WSW,253,0.0,2.0,92,0.00,,,0.00,Wunderground v.1.15,2014-09-23 13:53:00,
2014-09-23 06:59:00,46.9,44.7,29.99,SE,124,0.0,2.0,92,0.00,,,0.00,Wunderground v.1.15,2014-09-23 13:59:00,
2014-09-23 07:05:00,47.1,44.9,29.99,SE,125,0.0,2.0,92,0.00,,,0.00,Wunderground v.1.15,2014-09-23 14:05:00,
2014-09-23 07:11:00,47.6,45.7,29.99,ESE,118,0.0,2.0,93,0.00,,,0.00,Wunderground v.1.15,2014-09-23 14:11:00,
2014-09-23 07:17:00,47.7,45.5,29.99,East,96,0.0,2.0,92,0.00,,,0.00,Wunderground v.1.15,2014-09-23 14:17:00,
2014-09-23 07:22:00,47.6,45.1,29.99,WSW,245,0.0,2.0,91,0.00,,,0.00,Wunderground v.1.15,2014-09-23 14:22:00,
2014-09-23 07:27:00,47.6,45.4,29.99,WSW,245,0.0,2.0,92,0.00,,,0.00,Wunderground v.1.15,2014-09-23 14:27:00,
2014-09-23 07:33:00,47.6,45.4,29.99,WSW,245,0.0,2.0,92,0.00,,,0.00,Wunderground v.1.15,2014-09-23 14:33:00,
2014-09-23 07:39:00,48.0,46.1,29.99,WSW,245,0.0,2.0,93,0.00,,,0.00,Wunderground v.1.15,2014-09-23 14:39:00,
2014-09-23 07:45:00,48.6,46.7,29.99,South,188,1.0,3.0,93,0.00,,,0.00,Wunderground v.1.15,2014-09-23 14:45:00,
2014-09-23 07:47:00,48.9,47.0,29.99,ESE,102,1.0,3.0,93,0.00,,,0.00,Wunderground v.1.15,2014-09-23 14:47:00,
2014-09-23 07:53:00,49.7,47.5,29.99,WSW,252,1.0,2.0,92,0.00,,,0.00,Wunderground v.1.15,2014-09-23 14:53:00,
2014-09-23 07:59:00,50.2,48.0,29.99,WSW,252,0.0,2.0,92,0.00,,,0.00,Wunderground v.1.15,2014-09-23 14:59:00,
2014-09-23 08:05:00,50.4,48.2,29.99,WSW,252,0.0,2.0,92,0.00,,,0.00,Wunderground v.1.15,2014-09-23 15:05:00,
2014-09-23 08:10:00,50.9,48.7,29.99,WSW,252,0.0,2.0,92,0.00,,,0.00,Wunderground v.1.15,2014-09-23 15:10:00,
2014-09-23 08:16:00,51.8,49.5,29.99,WSW,252,0.0,2.0,92,0.00,,,0.00,Wunderground v.1.15,2014-09-23 15:16:00,
2014-09-23 08:22:00,52.7,49.8,29.99,SSE,149,0.0,2.0,90,0.00,,,0.00,Wunderground v.1.15,2014-09-23 15:22:00,
2014-09-23 08:28:00,53.9,49.8,29.99,SSE,155,1.0,2.0,86,0.00,,,0.00,Wunderground v.1.15,2014-09-23 15:28:00,
2014-09-23 08:34:00,55.2,50.1,29.99,SSE,147,1.0,2.0,83,0.00,,,0.00,Wunderground v.1.15,2014-09-23 15:34:00,
2014-09-23 08:40:00,56.7,51.3,29.99,SE,133,0.0,2.0,82,0.00,,,0.00,Wunderground v.1.15,2014-09-23 15:40:00,
2014-09-23 08:46:00,57.1,50.6,29.99,SW,224,0.0,2.0,79,0.00,,,0.00,Wunderground v.1.15,2014-09-23 15:46:00,
2014-09-23 08:51:00,58.1,51.3,29.99,SW,224,0.0,2.0,78,0.00,,,0.00,Wunderground v.1.15,2014-09-23 15:51:00,
2014-09-23 08:57:00,58.3,51.1,30.00,West,269,0.0,2.0,77,0.00,,,0.00,Wunderground v.1.15,2014-09-23 15:57:00,
2014-09-23 09:03:00,59.2,52.7,29.99,SW,225,0.0,2.0,79,0.00,,,0.00,Wunderground v.1.15,2014-09-23 16:03:00,
2014-09-23 09:09:00,60.9,53.3,29.99,SSW,201,0.0,2.0,76,0.00,,,0.00,Wunderground v.1.15,2014-09-23 16:09:00,
2014-09-23 09:14:00,61.5,53.1,29.99,SSW,205,0.0,2.0,74,0.00,,,0.00,Wunderground v.1.15,2014-09-23 16:14:00,
2014-09-23 09:20:00,62.3,53.2,29.99,West,262,0.0,2.0,72,0.00,,,0.00,Wunderground v.1.15,2014-09-23 16:20:00,
2014-09-23 09:26:00,63.1,53.2,29.99,SE,127,0.0,2.0,70,0.00,,,0.00,Wunderground v.1.15,2014-09-23 16:26:00,
2014-09-23 09:32:00,64.6,53.8,29.99,East,100,0.0,2.0,68,0.00,,,0.00,Wunderground v.1.15,2014-09-23 16:32:00,
2014-09-23 09:38:00,65.1,53.9,29.99,East,96,1.0,2.0,67,0.00,,,0.00,Wunderground v.1.15,2014-09-23 16:38:00,
2014-09-23 09:44:00,66.0,53.5,29.99,North,356,1.0,2.0,64,0.00,,,0.00,Wunderground v.1.15,2014-09-23 16:44:00,
2014-09-23 09:50:00,67.1,54.1,29.99,West,270,0.0,2.0,63,0.00,,,0.00,Wunderground v.1.15,2014-09-23 16:50:00,
2014-09-23 09:55:00,68.0,54.5,29.99,NNW,338,0.0,2.0,62,0.00,,,0.00,Wunderground v.1.15,2014-09-23 16:55:00,
2014-09-23 10:01:00,68.8,55.2,29.99,West,273,0.0,2.0,62,0.00,,,0.00,Wunderground v.1.15,2014-09-23 17:01:00,
2014-09-23 10:07:00,70.4,55.4,29.99,West,259,0.0,2.0,59,0.00,,,0.00,Wunderground v.1.15,2014-09-23 17:07:00,
2014-09-23 10:13:00,71.3,56.7,29.99,West,266,0.0,2.0,60,0.00,,,0.00,Wunderground v.1.15,2014-09-23 17:13:00,
2014-09-23 10:18:00,71.8,56.7,29.99,SSE,149,1.0,3.0,59,0.00,,,0.00,Wunderground v.1.15,2014-09-23 17:18:00,
2014-09-23 10:24:00,72.9,55.8,29.99,West,265,3.0,4.0,55,0.00,,,0.00,Wunderground v.1.15,2014-09-23 17:24:00,
2014-09-23 10:30:00,72.6,57.4,29.99,SW,214,2.0,4.0,59,0.00,,,0.00,Wunderground v.1.15,2014-09-23 17:30:00,
2014-09-23 10:36:00,72.6,54.5,29.98,SSW,203,3.0,4.0,53,0.00,,,0.00,Wunderground v.1.15,2014-09-23 17:36:00,